Time;durP1;ratioP1;P1;durP2;ratioP2;P2;SDS_P1;SDS_P2;PMS_P1;PMS_P2;Temp;Humidity;BMP_temperature;BMP_pressure;BME280_temperature;BME280_humidity;BME280_pressure;Samples;Min_cycle;Max_cycle;Signal;HPM_P1;HPM_P2
2022/01/14 05:01:08;;;;;;;28.20;13.83;;;0.30;99.90;;;;;;5629302;23;1116806;-74
2022/01/14 05:03:34;;;;;;;21.63;13.20;;;0.20;99.90;;;;;;4993970;28;20302;-73
2022/01/14 05:06:02;;;;;;;25.60;13.43;;;0.20;99.90;;;;;;4994293;28;20482;-73
2022/01/14 05:08:36;;;;;;;22.13;12.23;;;0.10;99.90;;;;;;4994238;28;20459;-73
2022/01/14 05:11:15;;;;;;;19.60;11.83;;;0.10;99.90;;;;;;4993942;28;20471;-74
2022/01/14 05:13:42;;;;;;;20.20;12.30;;;0.10;99.90;;;;;;5016919;23;20494;-75
2022/01/14 05:16:11;;;;;;;22.37;12.37;;;0.00;99.90;;;;;;4993651;28;20885;-75
2022/01/14 05:18:38;;;;;;;22.87;14.50;;;0.10;99.90;;;;;;4993874;28;20538;-75
2022/01/14 05:21:05;;;;;;;20.30;12.90;;;0.10;99.90;;;;;;4994163;28;20463;-75
2022/01/14 05:23:32;;;;;;;22.83;13.90;;;0.10;99.90;;;;;;4993560;28;21002;-75
2022/01/14 05:25:59;;;;;;;25.60;12.93;;;0.10;99.90;;;;;;4994349;28;20525;-75
2022/01/14 05:28:26;;;;;;;28.80;15.77;;;0.10;99.90;;;;;;4994073;28;20538;-76
2022/01/14 05:30:53;;;;;;;28.00;15.63;;;0.10;99.90;;;;;;4993500;28;20546;-75
2022/01/14 05:33:21;;;;;;;33.27;17.23;;;0.10;99.90;;;;;;4993331;28;21066;-75
2022/01/14 05:35:48;;;;;;;31.87;16.63;;;0.10;99.90;;;;;;4993803;28;20486;-75
2022/01/14 05:38:15;;;;;;;29.63;16.97;;;0.00;99.90;;;;;;4993919;28;20474;-75
2022/01/14 05:40:41;;;;;;;29.43;15.97;;;0.00;99.90;;;;;;4993788;28;20462;-75
2022/01/14 05:43:08;;;;;;;31.23;16.43;;;0.00;99.90;;;;;;4993854;28;20561;-76
2022/01/14 05:45:35;;;;;;;30.00;16.60;;;0.00;99.90;;;;;;4994222;28;20501;-75
2022/01/14 05:48:02;;;;;;;28.00;15.40;;;-0.10;99.90;;;;;;4993810;28;20522;-73
2022/01/14 05:50:30;;;;;;;27.77;14.73;;;-0.10;99.90;;;;;;4993293;28;20451;-73
2022/01/14 05:52:57;;;;;;;28.37;15.13;;;0.00;99.90;;;;;;4993545;28;20530;-73
2022/01/14 05:55:24;;;;;;;29.33;14.63;;;0.00;99.90;;;;;;4993557;28;20451;-73
2022/01/14 05:57:51;;;;;;;26.20;13.83;;;-0.10;99.90;;;;;;4993114;28;20578;-74
2022/01/14 06:00:20;;;;;;;23.00;13.90;;;-0.10;99.90;;;;;;4975822;28;20460;-74
2022/01/14 06:02:49;;;;;;;24.93;15.50;;;-0.10;99.90;;;;;;4973742;28;20539;-73
2022/01/14 06:05:16;;;;;;;25.90;15.20;;;-0.10;99.90;;;;;;4973654;28;20506;-73
2022/01/14 06:07:44;;;;;;;27.53;14.50;;;-0.10;99.90;;;;;;4973511;28;20495;-73
2022/01/14 06:10:11;;;;;;;26.60;13.77;;;-0.10;99.90;;;;;;4973657;28;20447;-73
2022/01/14 06:12:39;;;;;;;24.10;14.53;;;-0.10;99.90;;;;;;4973679;28;20538;-73
2022/01/14 06:15:06;;;;;;;26.70;14.20;;;-0.10;99.90;;;;;;4973419;28;20515;-73
2022/01/14 06:17:36;;;;;;;28.10;15.47;;;-0.10;99.90;;;;;;4973309;28;21094;-73
2022/01/14 06:20:04;;;;;;;27.97;15.17;;;-0.10;99.90;;;;;;4973406;28;20474;-74
2022/01/14 06:22:31;;;;;;;21.47;13.80;;;-0.10;99.90;;;;;;4973719;28;20535;-73
2022/01/14 06:25:00;;;;;;;29.57;14.23;;;-0.10;99.90;;;;;;4973538;28;20487;-73
2022/01/14 06:27:27;;;;;;;24.00;13.20;;;-0.10;99.90;;;;;;4973197;28;20480;-73
2022/01/14 06:29:54;;;;;;;22.50;13.10;;;-0.10;99.90;;;;;;4972762;28;20456;-74
2022/01/14 06:32:22;;;;;;;21.97;12.37;;;-0.10;99.90;;;;;;4973268;28;20913;-73
2022/01/14 06:34:49;;;;;;;21.13;12.07;;;-0.10;99.90;;;;;;4972665;28;20563;-75
2022/01/14 06:37:16;;;;;;;23.87;13.53;;;-0.10;99.90;;;;;;4972941;28;20590;-74
2022/01/14 06:39:43;;;;;;;22.60;12.63;;;-0.10;99.90;;;;;;4973152;28;20483;-74
2022/01/14 06:42:13;;;;;;;22.40;11.63;;;-0.10;99.90;;;;;;4973027;28;20535;-74
2022/01/14 06:44:40;;;;;;;29.40;14.80;;;-0.10;99.90;;;;;;4972543;28;21009;-73
2022/01/14 06:47:07;;;;;;;37.73;17.70;;;-0.10;99.90;;;;;;4971352;28;20471;-73
2022/01/14 06:49:34;;;;;;;33.13;18.17;;;-0.10;99.90;;;;;;4972790;28;20507;-73
2022/01/14 06:52:01;;;;;;;30.03;17.13;;;-0.20;99.90;;;;;;4985427;28;20987;-73
2022/01/14 06:54:28;;;;;;;29.13;16.23;;;-0.20;99.90;;;;;;4991917;28;21031;-73
2022/01/14 06:56:55;;;;;;;31.13;16.40;;;-0.20;99.90;;;;;;4992312;28;21200;-73
2022/01/14 06:59:23;;;;;;;35.50;17.37;;;-0.20;99.90;;;;;;4992099;28;20459;-73
2022/01/14 07:01:50;;;;;;;33.43;16.90;;;-0.20;99.90;;;;;;4992252;28;21038;-73
2022/01/14 07:04:17;;;;;;;29.40;16.20;;;-0.10;99.90;;;;;;4992232;28;20845;-74
2022/01/14 07:06:44;;;;;;;28.83;15.07;;;-0.10;99.90;;;;;;4992320;28;20891;-72
2022/01/14 07:09:11;;;;;;;26.70;13.73;;;-0.20;99.90;;;;;;4992212;28;20458;-72
2022/01/14 07:11:38;;;;;;;29.83;15.67;;;-0.10;99.90;;;;;;4992382;28;20538;-72
2022/01/14 07:14:05;;;;;;;27.77;13.60;;;-0.20;99.90;;;;;;4992019;28;20565;-72
2022/01/14 07:16:35;;;;;;;24.33;12.90;;;-0.30;99.90;;;;;;4992131;28;20529;-72
2022/01/14 07:19:03;;;;;;;20.80;12.17;;;-0.40;99.90;;;;;;4991923;28;20598;-72
2022/01/14 07:21:30;;;;;;;28.20;14.87;;;-0.40;99.90;;;;;;4992480;28;20458;-73
2022/01/14 07:23:57;;;;;;;38.50;17.23;;;-0.50;99.90;;;;;;4992476;28;20558;-72
2022/01/14 07:26:24;;;;;;;37.27;16.53;;;-0.60;99.90;;;;;;4992372;28;20861;-72
2022/01/14 07:28:50;;;;;;;33.07;15.97;;;-0.50;99.90;;;;;;4992081;28;20539;-73
2022/01/14 07:31:17;;;;;;;29.67;18.60;;;-0.50;99.90;;;;;;4992057;28;20486;-72
2022/01/14 07:33:45;;;;;;;33.13;15.80;;;-0.50;99.90;;;;;;4992224;28;20559;-72
2022/01/14 07:36:12;;;;;;;29.03;15.93;;;-0.40;99.90;;;;;;4992212;28;20483;-72
2022/01/14 07:38:42;;;;;;;26.90;14.87;;;-0.40;99.90;;;;;;4991874;28;21085;-73
2022/01/14 07:41:09;;;;;;;34.80;17.00;;;-0.40;99.90;;;;;;4991887;28;21006;-73
2022/01/14 07:43:36;;;;;;;31.10;16.50;;;-0.30;99.90;;;;;;4992042;28;20475;-73
2022/01/14 07:46:04;;;;;;;25.50;14.37;;;-0.30;99.90;;;;;;4992264;28;20530;-73
2022/01/14 07:48:30;;;;;;;35.60;16.60;;;-0.30;99.90;;;;;;4995475;28;20939;-73
2022/01/14 07:50:59;;;;;;;31.53;15.67;;;-0.20;99.90;;;;;;4990681;28;20455;-73
2022/01/14 07:53:26;;;;;;;32.40;16.30;;;-0.20;99.90;;;;;;4975842;28;20554;-73
2022/01/14 07:55:53;;;;;;;30.03;15.67;;;-0.20;99.90;;;;;;4976118;28;20534;-73
2022/01/14 07:58:20;;;;;;;29.60;16.57;;;-0.20;99.90;;;;;;4975767;28;21095;-73
2022/01/14 08:00:46;;;;;;;32.80;18.17;;;-0.10;99.90;;;;;;4975630;28;21015;-73
2022/01/14 08:03:13;;;;;;;25.93;15.30;;;-0.10;99.90;;;;;;4976085;28;20526;-73
2022/01/14 08:05:40;;;;;;;38.03;16.93;;;-0.10;99.90;;;;;;4975869;28;20875;-73
2022/01/14 08:08:09;;;;;;;33.00;18.37;;;-0.10;99.90;;;;;;4975825;28;20459;-73
2022/01/14 08:10:37;;;;;;;43.50;18.77;;;0.00;99.90;;;;;;4975721;28;20480;-73
2022/01/14 08:13:04;;;;;;;39.90;19.10;;;0.00;99.90;;;;;;4975496;28;20591;-73
2022/01/14 08:15:32;;;;;;;34.00;17.73;;;0.00;99.90;;;;;;4980973;28;20810;-73
2022/01/14 08:18:01;;;;;;;35.43;17.20;;;0.10;99.90;;;;;;4995086;28;20573;-73
2022/01/14 08:20:28;;;;;;;31.43;16.27;;;0.10;99.90;;;;;;4975860;28;20463;-73
2022/01/14 08:22:55;;;;;;;33.50;17.10;;;0.10;99.90;;;;;;4975483;28;20483;-73
2022/01/14 08:25:23;;;;;;;31.33;17.90;;;0.20;99.90;;;;;;4991487;28;20539;-73
2022/01/14 08:27:50;;;;;;;35.03;15.87;;;0.20;99.90;;;;;;4994874;28;20486;-73
2022/01/14 08:30:17;;;;;;;34.20;17.33;;;0.30;99.90;;;;;;4994803;28;20534;-73
2022/01/14 08:32:44;;;;;;;27.00;15.87;;;0.30;99.90;;;;;;4994883;28;20545;-73
2022/01/14 08:35:11;;;;;;;27.93;14.73;;;0.20;99.90;;;;;;4994862;28;20526;-73
2022/01/14 08:37:39;;;;;;;25.00;14.57;;;0.10;99.90;;;;;;4994279;28;20491;-73
2022/01/14 08:40:08;;;;;;;25.43;14.33;;;0.20;99.90;;;;;;4994502;28;20962;-73
2022/01/14 08:42:36;;;;;;;24.83;14.83;;;0.20;99.90;;;;;;4994862;28;21006;-74
2022/01/14 08:45:04;;;;;;;35.00;16.63;;;0.20;99.90;;;;;;4994458;28;20975;-73
2022/01/14 08:47:31;;;;;;;31.50;17.27;;;0.30;99.90;;;;;;4994817;28;20479;-73
2022/01/14 08:49:58;;;;;;;32.90;17.10;;;0.50;99.90;;;;;;4994219;28;20530;-73
2022/01/14 08:52:25;;;;;;;30.03;16.20;;;0.60;99.90;;;;;;4994591;28;20478;-73
2022/01/14 08:54:52;;;;;;;29.37;16.53;;;0.70;99.90;;;;;;4994201;28;20493;-73
2022/01/14 08:57:19;;;;;;;32.80;17.07;;;0.70;99.90;;;;;;4994524;28;20582;-73
2022/01/14 08:59:47;;;;;;;29.57;15.47;;;0.80;99.90;;;;;;4993545;28;20461;-73
2022/01/14 09:02:14;;;;;;;28.13;15.03;;;0.90;99.90;;;;;;4994446;28;20525;-74
2022/01/14 09:04:41;;;;;;;29.57;15.83;;;1.00;99.90;;;;;;4993836;28;20559;-73
2022/01/14 09:07:07;;;;;;;29.73;15.30;;;1.10;99.90;;;;;;4991624;28;20494;-73
2022/01/14 09:09:34;;;;;;;28.43;15.50;;;1.10;99.90;;;;;;4993858;28;21034;-74
2022/01/14 09:12:02;;;;;;;29.17;14.80;;;1.10;99.90;;;;;;4994434;28;20526;-74
2022/01/14 09:14:29;;;;;;;29.73;16.00;;;1.10;99.90;;;;;;4993797;28;20478;-74
2022/01/14 09:16:58;;;;;;;30.57;17.43;;;1.10;99.90;;;;;;4993704;28;20959;-74
2022/01/14 09:19:25;;;;;;;33.70;17.90;;;1.30;99.90;;;;;;4993629;28;20522;-74
2022/01/14 09:21:52;;;;;;;33.60;19.60;;;1.40;99.90;;;;;;4993992;28;20530;-74
2022/01/14 09:24:19;;;;;;;29.50;16.27;;;1.50;99.90;;;;;;4993713;28;20521;-74
2022/01/14 09:26:46;;;;;;;29.70;17.60;;;1.60;99.90;;;;;;4994033;28;20481;-74
2022/01/14 09:29:13;;;;;;;26.13;15.67;;;1.70;99.90;;;;;;4993716;28;20526;-74
2022/01/14 09:31:40;;;;;;;29.83;17.57;;;1.80;99.90;;;;;;4993892;28;20546;-73
2022/01/14 09:34:08;;;;;;;28.50;16.23;;;1.90;99.90;;;;;;4993623;28;20509;-73
2022/01/14 09:36:35;;;;;;;27.80;15.90;;;1.90;99.90;;;;;;4991146;28;20475;-74
2022/01/14 09:39:03;;;;;;;26.43;16.50;;;2.00;99.90;;;;;;4993513;28;20581;-74
2022/01/14 09:41:31;;;;;;;30.97;19.23;;;2.10;99.90;;;;;;4993685;28;20935;-74
2022/01/14 09:43:57;;;;;;;28.97;18.70;;;2.20;99.90;;;;;;4993434;28;20467;-74
2022/01/14 09:46:24;;;;;;;30.00;17.87;;;2.20;99.90;;;;;;4993527;28;20966;-74
2022/01/14 09:48:51;;;;;;;28.33;18.10;;;2.20;99.90;;;;;;4993066;28;20447;-74
2022/01/14 09:51:21;;;;;;;28.30;16.63;;;2.40;99.90;;;;;;4993297;28;20459;-73
2022/01/14 09:53:48;;;;;;;28.83;17.93;;;2.60;99.90;;;;;;4993390;28;21011;-74
2022/01/14 09:56:16;;;;;;;30.23;17.40;;;2.70;99.90;;;;;;4990228;28;20534;-73
2022/01/14 09:58:47;;;;;;;31.30;17.00;;;2.90;99.90;;;-143.14;100.00;56521.75;4993067;28;20581;-73
2022/01/14 10:01:16;;;;;;;27.30;16.40;;;3.00;99.90;;;;;;4973923;28;20455;-74
2022/01/14 10:03:54;;;;;;;26.80;16.13;;;3.20;99.90;;;;;;4973982;28;20506;-73
2022/01/14 10:06:43;;;;;;;25.93;15.90;;;3.40;99.90;;;;;;4973917;28;20576;-74
2022/01/14 10:09:13;;;;;;;25.90;16.10;;;3.70;99.90;;;;;;4973116;28;20454;-74
2022/01/14 10:11:43;;;;;;;27.40;16.80;;;3.80;99.90;;;;;;4973157;28;20460;-74
2022/01/14 10:14:12;;;;;;;22.80;15.47;;;3.90;99.90;;;;;;4973293;28;20490;-74
2022/01/14 10:16:43;;;;;;;32.77;14.97;;;3.80;99.90;;;;;;4973645;28;20452;-73
2022/01/14 10:19:21;;;;;;;24.30;15.40;;;4.00;99.90;;;;;;4973167;28;20488;-73
2022/01/14 10:21:49;;;;;;;26.10;15.80;;;4.10;99.90;;;;;;4973653;28;20538;-73
2022/01/14 10:24:18;;;;;;;24.03;15.37;;;4.10;99.90;;;;;;4973169;28;21000;-74
2022/01/14 10:26:50;;;;;;;26.00;16.33;;;4.10;99.90;;;;;;4973634;28;20540;-73
2022/01/14 10:29:27;;;;;;;24.33;14.97;;;4.10;99.90;;;;;;4972762;28;20543;-74
2022/01/14 10:31:55;;;;;;;25.97;16.43;;;4.10;99.90;;;;;;4973476;28;20530;-74
2022/01/14 10:34:22;;;;;;;26.00;15.87;;;4.20;99.90;;;;;;4973391;28;20507;-74
2022/01/14 10:36:51;;;;;;;23.23;15.80;;;4.20;99.90;;;;;;4973133;28;20932;-74
2022/01/14 10:39:20;;;;;;;25.33;15.53;;;4.20;99.90;;;;;;4972944;28;21023;-74
2022/01/14 10:41:47;;;;;;;24.80;15.73;;;4.30;99.90;;;;;;4973358;28;20543;-74
2022/01/14 10:44:27;;;;;;;27.40;15.93;;;4.40;99.90;;;;;;4973444;28;20480;-74
2022/01/14 10:47:12;;;;;;;24.63;16.00;;;4.50;99.90;;;;;;4973112;28;20805;-74
2022/01/14 10:49:39;;;;;;;21.00;14.00;;;4.60;99.90;;;;;;4973411;28;21031;-74
2022/01/14 10:52:19;;;;;;;25.10;14.60;;;4.80;99.90;;;;;;4973275;28;20527;-74
2022/01/14 10:54:47;;;;;;;22.87;13.90;;;4.80;99.90;;;;;;4973068;28;21034;-74
2022/01/14 10:57:17;;;;;;;27.63;15.13;;;4.90;99.90;;;;;;4973090;28;20451;-74
2022/01/14 10:59:45;;;;;;;26.13;15.20;;;5.00;99.90;;;;;;4972735;28;20534;-75
2022/01/14 11:02:34;;;;;;;26.43;13.43;;;5.10;99.90;;;;;;4973333;28;20911;-74
2022/01/14 11:05:05;;;;;;;22.70;14.13;;;5.10;99.90;;;;;;4972856;28;20551;-74
2022/01/14 11:07:34;;;;;;;23.10;12.10;;;5.30;99.90;;;;;;4973338;28;20535;-74
2022/01/14 11:10:01;;;;;;;23.03;13.83;;;5.30;99.90;;;;;;4972805;28;20550;-74
2022/01/14 11:12:29;;;;;;;22.10;12.70;;;5.30;99.90;;;;;;4972817;28;20554;-75
2022/01/14 11:14:57;;;;;;;20.70;13.83;;;5.40;99.90;;;;;;4996727;23;20505;-74
2022/01/14 11:17:24;;;;;;;20.33;14.07;;;5.50;99.90;;;;;;4953366;29;20491;-75
2022/01/14 11:19:50;;;;;;;21.00;13.30;;;5.50;99.90;;;;;;4953424;29;20529;-75
2022/01/14 11:25:02;;;;;;;20.73;13.87;;;5.70;99.90;;;;;;4926657;29;20467;-75
2022/01/14 11:27:31;;;;;;;23.03;14.70;;;5.80;99.90;;;;;;4938167;29;20472;-74
2022/01/14 11:30:00;;;;;;;24.40;16.00;;;5.80;99.90;;;;;;4937976;29;20457;-74
2022/01/14 11:32:28;;;;;;;22.10;15.20;;;5.80;99.90;;;;;;4935405;29;20552;-74
2022/01/14 11:34:56;;;;;;;23.20;15.57;;;5.90;99.90;;;;;;4934818;29;20473;-74
2022/01/14 11:37:33;;;;;;;32.13;17.00;;;6.00;99.90;;;;;;4925580;29;20462;-74
2022/01/14 11:40:05;;;;;;;23.37;16.40;;;6.10;99.90;;;;;;4915108;29;20593;-74
2022/01/14 11:42:43;;;;;;;26.20;15.50;;;6.30;99.90;;;;;;4930639;29;20552;-74
2022/01/14 11:45:11;;;;;;;26.33;16.00;;;6.50;99.90;;;;;;4927170;29;20561;-74
2022/01/14 11:47:50;;;;;;;26.70;16.23;;;6.60;99.90;;;;;;4924725;29;20650;-74
2022/01/14 11:50:49;;;;;;;28.37;17.47;;;6.70;99.90;;;;;;4933929;29;20548;-74
2022/01/14 11:53:35;;;;;;;21.33;14.70;;;6.90;99.90;;;;;;4915416;29;20542;-74
2022/01/14 11:56:04;;;;;;;23.97;16.70;;;7.20;99.90;;;;;;4928701;29;20472;-74
2022/01/14 11:58:31;;;;;;;27.53;16.00;;;7.30;99.90;;;;;;4919893;29;20498;-74
2022/01/14 12:00:58;;;;;;;26.73;16.43;;;7.40;99.90;;;;;;4947793;29;20544;-74
2022/01/14 12:03:28;;;;;;;26.23;16.00;;;7.60;99.90;;;;;;4934634;29;20505;-74
2022/01/14 12:05:58;;;;;;;23.80;16.67;;;7.50;99.90;;;;;;4937444;29;20460;-75
2022/01/14 12:08:30;;;;;;;21.60;15.23;;;7.50;99.90;;;;;;4933071;29;20467;-75
2022/01/14 12:11:17;;;;;;;23.17;15.63;;;7.40;99.90;;;;;;4935954;29;20532;-75
2022/01/14 12:14:00;;;;;;;26.10;15.17;;;7.50;99.90;;;;;;4934033;29;20856;-75
2022/01/14 12:16:49;;;;;;;22.70;15.23;;;7.60;99.90;;;;;;4936356;29;20548;-75
2022/01/14 12:19:19;;;;;;;22.50;15.00;;;7.60;99.90;;;;;;4936226;29;20580;-75
2022/01/14 12:22:02;;;;;;;23.97;15.63;;;7.70;99.90;;;;;;4936502;29;20450;-75
2022/01/14 12:24:53;;;;;;;23.30;15.30;;;7.80;99.90;;;;;;4936071;29;20484;-75
2022/01/14 12:27:42;;;;;;;22.50;14.67;;;7.80;99.90;;;;;;4931127;29;20973;-75
2022/01/14 12:30:29;;;;;;;23.33;14.53;;;7.90;99.90;;;;;;4936155;29;20442;-75
2022/01/14 12:32:57;;;;;;;23.60;13.50;;;8.00;99.90;;;;;;4935160;29;20457;-75
2022/01/14 12:35:30;;;;;;;22.20;13.03;;;8.10;99.90;;;;;;4935812;29;20454;-75
2022/01/14 12:38:00;;;;;;;19.50;13.30;;;8.10;99.90;;;;;;4935892;29;20521;-75
2022/01/14 12:40:30;;;;;;;24.40;14.40;;;8.10;99.90;;;;;;4935479;29;20766;-75
2022/01/14 12:42:59;;;;;;;21.50;14.07;;;8.20;99.90;;;;;;4935871;29;20490;-76
2022/01/14 12:46:02;;;;;;;15.90;12.47;;;8.20;99.90;;;;;;4935733;29;20549;-75
2022/01/14 12:48:40;;;;;;;19.83;13.60;;;8.30;99.90;;;;;;4935882;29;20548;-75
2022/01/14 12:51:19;;;;;;;20.20;12.23;;;8.10;99.90;;;;;;4935385;29;20548;-75
2022/01/14 12:53:55;;;;;;;16.57;12.43;;;8.20;99.90;;;;;;4927761;29;20855;-75
2022/01/14 12:56:24;;;;;;;15.93;11.70;;;8.20;99.90;;;;;;4935583;29;20554;-75
2022/01/14 12:58:56;;;;;;;15.67;12.20;;;8.30;99.90;;;;;;4935313;29;20527;-75
2022/01/14 13:01:32;;;;;;;16.30;11.70;;;8.40;99.90;;;;;;4935832;29;20681;-75
2022/01/14 13:04:03;;;;;;;17.30;12.20;;;8.40;99.90;;;;;;4936522;29;20560;-75
2022/01/14 13:06:44;;;;;;;18.93;12.03;;;8.40;99.90;;;;;;4936516;29;20469;-75
2022/01/14 13:09:12;;;;;;;15.10;11.17;;;8.40;99.90;;;;;;4935920;29;20942;-76
2022/01/14 13:11:55;;;;;;;18.70;11.57;;;8.40;99.90;;;;;;4933377;29;20489;-75
2022/01/14 13:14:32;;;;;;;17.97;11.70;;;8.40;99.90;;;;;;4936145;29;20496;-75
2022/01/14 13:17:02;;;;;;;17.50;12.03;;;8.30;99.90;;;;;;4936192;29;20544;-75
2022/01/14 13:19:33;;;;;;;18.23;12.27;;;8.30;99.90;;;;;;4935737;29;20504;-76
2022/01/14 13:22:03;;;;;;;16.23;11.40;;;8.30;99.90;;;;;;4935857;29;20481;-76
2022/01/14 13:24:31;;;;;;;17.93;11.60;;;8.30;99.90;;;;;;4936181;29;20484;-75
2022/01/14 13:26:59;;;;;;;16.53;11.83;;;8.40;99.90;;;;;;4936072;29;20517;-75
2022/01/14 13:29:26;;;;;;;20.60;13.30;;;8.50;99.90;;;;;;4935831;29;20521;-75
2022/01/14 13:31:53;;;;;;;20.90;12.43;;;8.50;99.90;;;;;;4935891;29;20537;-75
2022/01/14 13:34:21;;;;;;;18.20;10.93;;;8.40;99.90;;;;;;4935948;29;20661;-74
2022/01/14 13:36:49;;;;;;;13.23;10.90;;;8.60;99.90;;;;;;4935775;29;20545;-74
2022/01/14 13:39:20;;;;;;;15.00;10.70;;;8.60;99.90;;;;;;4935510;29;20493;-74
2022/01/14 13:41:47;;;;;;;19.73;11.20;;;8.50;99.90;;;;;;4935704;29;20489;-74
2022/01/14 13:44:16;;;;;;;16.33;11.33;;;8.50;99.90;;;;;;4935494;29;21075;-74
2022/01/14 13:46:49;;;;;;;17.37;11.33;;;8.50;99.90;;;;;;4935897;29;20540;-74
2022/01/14 13:49:20;;;;;;;17.50;12.87;;;8.50;99.90;;;;;;4935480;29;20457;-74
2022/01/14 13:52:02;;;;;;;15.53;10.77;;;8.40;99.90;;;;;;4935637;29;20454;-74
2022/01/14 13:54:29;;;;;;;16.80;11.47;;;8.40;99.90;;;;;;4935717;29;20509;-74
2022/01/14 13:56:56;;;;;;;16.70;11.00;;;8.30;99.90;;;;;;4935685;29;20453;-73
2022/01/14 13:59:23;;;;;;;16.07;10.77;;;8.30;99.90;;;;;;4935392;29;20536;-74
2022/01/14 14:01:58;;;;;;;20.60;11.20;;;8.20;99.90;;;;;;4935597;29;20456;-74
2022/01/14 14:04:28;;;;;;;17.80;10.57;;;8.20;99.90;;;;;;4935314;29;20990;-75
2022/01/14 14:07:06;;;;;;;16.90;9.80;;;8.30;99.90;;;;;;4935640;29;20453;-74
2022/01/14 14:09:40;;;;;;;11.97;9.60;;;8.20;99.90;;;;;;4935377;29;20464;-74
2022/01/14 14:12:37;;;;;;;14.00;9.40;;;8.30;99.90;;;;;;4935472;29;20545;-74
2022/01/14 14:18:06;;;;;;;13.10;8.43;;;8.20;99.90;;;;;;4935142;29;20489;-74
2022/01/14 14:20:33;;;;;;;13.30;10.40;;;8.20;99.90;;;;;;4922909;29;20495;-74
2022/01/14 14:23:17;;;;;;;14.83;9.53;;;8.20;99.90;;;;;;4916060;29;20459;-75
2022/01/14 14:25:44;;;;;;;19.67;11.87;;;8.20;99.90;;;;;;4916120;29;20454;-74
2022/01/14 14:28:12;;;;;;;28.03;11.33;;;8.20;99.90;;;;;;4915808;29;20485;-66
2022/01/14 14:30:40;;;;;;;13.43;9.20;;;8.20;99.90;;;;;;4933605;29;20450;-76
2022/01/14 14:33:09;;;;;;;17.33;10.67;;;8.20;99.90;;;;;;4934770;29;20578;-75
2022/01/14 14:35:38;;;;;;;13.60;10.10;;;8.10;99.90;;;;;;4935122;29;20972;-75
2022/01/14 14:38:07;;;;;;;20.43;10.30;;;8.10;99.90;;;;;;4934782;29;20496;-74
2022/01/14 14:40:37;;;;;;;19.90;9.93;;;8.10;99.90;;;;;;4934524;29;20584;-74
2022/01/14 14:43:06;;;;;;;14.20;10.23;;;8.10;99.90;;;;;;4935070;29;20457;-75
2022/01/14 14:45:33;;;;;;;14.83;9.90;;;8.10;99.90;;;;;;4934898;29;20484;-75
2022/01/14 14:48:01;;;;;;;21.97;10.63;;;8.10;99.90;;;;;;4934699;29;20986;-75
2022/01/14 14:50:29;;;;;;;18.00;11.90;;;8.10;99.90;;;;;;4934164;29;20481;-75
2022/01/14 14:52:57;;;;;;;19.37;12.20;;;8.20;99.90;;;;;;4918269;29;20465;-75
2022/01/14 14:55:24;;;;;;;17.80;10.33;;;8.30;99.90;;;;;;4915422;29;20494;-74
2022/01/14 14:57:53;;;;;;;19.87;11.47;;;8.30;99.90;;;;;;4915553;29;20509;-75
2022/01/14 15:00:23;;;;;;;15.10;10.90;;;8.40;99.90;;;;;;4915389;29;20585;-75
2022/01/14 15:02:51;;;;;;;20.90;12.93;;;8.40;99.90;;;;;;4915064;29;20950;-75
2022/01/14 15:05:18;;;;;;;18.97;12.63;;;8.40;99.90;;;;;;4915596;29;20474;-76
2022/01/14 15:07:45;;;;;;;23.10;12.30;;;8.40;99.90;;;;;;4916463;29;20455;-75
2022/01/14 15:10:15;;;;;;;18.13;11.57;;;8.50;99.90;;;;;;4915686;29;20550;-75
2022/01/14 15:12:42;;;;;;;20.40;12.00;;;8.40;99.90;;;;;;4915665;29;20542;-75
2022/01/14 15:15:18;;;;;;;15.30;10.60;;;8.50;99.90;;;;;;4915461;29;20581;-75
2022/01/14 15:20:30;;;;;;;17.47;11.90;;;8.40;99.90;;;;;;4915252;29;20653;-74
2022/01/14 15:22:57;;;;;;;18.37;12.50;;;8.40;99.90;;;;;;4925388;29;20545;-74
2022/01/14 15:25:27;;;;;;;20.70;12.17;;;8.30;99.90;;;;;;4946569;29;20572;-75
2022/01/14 15:27:54;;;;;;;17.73;11.33;;;8.30;99.90;;;;;;4915728;29;20458;-74
2022/01/14 15:30:23;;;;;;;17.47;11.40;;;8.30;99.90;;;;;;4923875;29;20455;-74
2022/01/14 15:32:50;;;;;;;21.87;12.07;;;8.20;99.90;;;;;;4922380;29;20548;-74
2022/01/14 15:35:18;;;;;;;17.93;12.40;;;8.20;99.90;;;;;;4917213;29;20500;-74
2022/01/14 15:37:45;;;;;;;15.13;11.23;;;8.20;99.90;;;;;;4913808;29;20463;-74
2022/01/14 15:40:14;;;;;;;19.93;11.57;;;8.10;99.90;;;;;;4925183;29;20498;-74
2022/01/14 15:42:43;;;;;;;15.97;10.53;;;8.00;99.90;;;;;;4920810;29;20497;-74
2022/01/14 15:45:11;;;;;;;13.13;10.50;;;8.00;99.90;;;;;;4918842;29;20482;-74
2022/01/14 15:47:39;;;;;;;14.80;9.73;;;7.90;99.90;;;;;;4912173;29;20550;-75
2022/01/14 15:50:11;;;;;;;21.03;10.63;;;7.80;99.90;;;;;;4930374;29;21022;-74
2022/01/14 15:52:38;;;;;;;20.37;10.60;;;7.70;99.90;;;;;;4923138;29;20541;-71
2022/01/14 15:55:06;;;;;;;17.60;10.03;;;7.70;99.90;;;;;;4911932;29;20488;-62
2022/01/14 15:57:33;;;;;;;14.30;9.70;;;7.60;99.90;;;;;;4926683;29;20556;-75
2022/01/14 16:00:00;;;;;;;15.73;10.47;;;7.50;99.90;;;;;;4912401;29;20582;-74
2022/01/14 16:02:27;;;;;;;13.67;9.80;;;7.40;99.90;;;;;;4917920;29;20493;-74
2022/01/14 16:04:55;;;;;;;15.00;10.40;;;7.30;99.90;;;;;;4921617;29;20565;-76
2022/01/14 16:07:22;;;;;;;13.67;10.00;;;7.20;99.90;;;;;;4911883;29;20500;-75
2022/01/14 16:09:51;;;;;;;16.33;10.60;;;7.10;99.90;;;;;;4929617;29;20561;-74
2022/01/14 16:12:18;;;;;;;16.50;11.13;;;7.00;99.90;;;;;;4919506;29;20465;-75
2022/01/14 16:14:45;;;;;;;15.10;11.13;;;6.90;99.90;;;;;;4934004;29;20572;-74
2022/01/14 16:17:12;;;;;;;14.57;10.60;;;6.90;99.90;;;;;;4923219;29;20565;-74
2022/01/14 16:19:39;;;;;;;18.60;11.40;;;6.70;99.90;;;;;;4914594;29;20589;-74
2022/01/14 16:22:07;;;;;;;18.50;10.23;;;6.70;99.90;;;;;;4932743;29;20849;-75
2022/01/14 16:24:36;;;;;;;20.20;11.90;;;6.60;99.90;;;;;;4933830;29;20564;-73
2022/01/14 16:27:04;;;;;;;22.07;14.57;;;6.60;99.90;;;;;;4924494;29;20458;-75
2022/01/14 16:29:48;;;;;;;23.67;13.80;;;6.50;99.90;;;;;;4914103;29;20989;-75
2022/01/14 16:32:16;;;;;;;29.07;15.67;;;6.40;99.90;;;;;;4933507;29;21002;-75
2022/01/14 16:34:43;;;;;;;24.13;16.40;;;6.40;99.90;;;;;;4933926;29;20512;-75
2022/01/14 16:37:13;;;;;;;26.50;16.17;;;6.30;99.90;;;;;;4923883;29;20454;-74
2022/01/14 16:39:40;;;;;;;28.27;17.50;;;6.20;99.90;;;;;;4927667;29;21021;-74
2022/01/14 16:42:09;;;;;;;28.40;17.80;;;6.10;99.90;;;;;;4918242;29;20533;-74
2022/01/14 16:44:36;;;;;;;22.10;15.63;;;6.00;99.90;;;;;;4933791;29;20592;-74
2022/01/14 16:47:04;;;;;;;23.77;16.17;;;6.00;99.90;;;;;;4924899;29;20553;-73
2022/01/14 16:49:31;;;;;;;24.30;17.30;;;5.90;99.90;;;;;;4926025;29;20468;-75
2022/01/14 16:51:59;;;;;;;29.83;17.57;;;5.80;99.90;;;;;;4917951;29;20482;-75
2022/01/14 16:54:28;;;;;;;23.87;16.70;;;5.80;99.90;;;;;;4930027;29;20496;-75
2022/01/14 16:56:55;;;;;;;25.70;17.20;;;5.70;99.90;;;;;;4914511;29;20894;-75
2022/01/14 16:59:22;;;;;;;22.07;14.83;;;5.60;99.90;;;;;;4914029;29;20465;-76
2022/01/14 17:01:49;;;;;;;26.13;14.80;;;5.60;99.90;;;;;;4928443;29;20548;-74
2022/01/14 17:04:17;;;;;;;28.30;15.80;;;5.50;99.90;;;;;;4917755;29;20569;-75
2022/01/14 17:06:44;;;;;;;19.83;13.50;;;5.50;99.90;;;;;;4933511;29;20478;-75
2022/01/14 17:09:11;;;;;;;22.73;12.77;;;5.40;99.90;;;;;;4924538;29;20565;-74
2022/01/14 17:11:40;;;;;;;17.47;11.93;;;5.30;99.90;;;;;;4925735;29;20461;-74
2022/01/14 17:14:08;;;;;;;20.13;10.90;;;5.30;99.90;;;;;;4951940;23;20571;-74
2022/01/14 17:16:35;;;;;;;17.83;11.80;;;5.20;99.90;;;;;;4973579;28;20879;-74
2022/01/14 17:19:02;;;;;;;20.30;11.47;;;5.10;99.90;;;;;;4970032;28;20485;-73
2022/01/14 17:21:29;;;;;;;16.40;10.73;;;5.10;99.90;;;;;;4970362;28;20498;-75
2022/01/14 17:23:56;;;;;;;14.80;10.23;;;5.00;99.90;;;;;;4961152;28;20912;-75
2022/01/14 17:26:23;;;;;;;18.67;11.57;;;4.90;99.90;;;;;;4935082;29;20478;-74
2022/01/14 17:28:51;;;;;;;15.80;10.70;;;4.90;99.90;;;;;;4934928;29;20489;-74
2022/01/14 17:31:20;;;;;;;15.70;11.20;;;4.80;99.90;;;;;;4934925;29;20460;-73
2022/01/14 17:33:50;;;;;;;16.03;10.70;;;4.70;99.90;;;;;;4946586;28;20544;-73
2022/01/14 17:36:18;;;;;;;15.33;10.23;;;4.70;99.90;;;;;;4951324;29;20511;-74
2022/01/14 17:38:46;;;;;;;17.53;10.40;;;4.60;99.90;;;;;;4954081;29;20453;-74
2022/01/14 17:41:12;;;;;;;13.80;9.60;;;4.50;99.90;;;;;;4950241;29;20486;-74
2022/01/14 17:43:43;;;;;;;18.00;13.10;;;4.50;99.90;;;;;;4934667;29;20929;-64
2022/01/14 17:46:12;;;;;;;41.90;26.53;;;4.50;99.90;;;;;;4934815;29;20525;-74
2022/01/14 17:48:42;;;;;;;31.70;20.40;;;4.40;99.90;;;;;;4934670;29;20489;-74
2022/01/14 17:51:09;;;;;;;43.67;28.80;;;4.40;99.90;;;;;;4934449;29;20830;-74
2022/01/14 17:53:36;;;;;;;38.50;23.10;;;4.30;99.90;;;;;;4934856;29;20454;-74
2022/01/14 17:56:02;;;;;;;29.10;20.57;;;4.30;99.90;;;;;;4934667;29;21037;-74